createdAt,value
2023-05-05T00:01:55.004Z,7.00
2023-05-05T00:04:24.898Z,6.90
2023-05-05T00:06:54.932Z,7.20
2023-05-05T00:09:24.745Z,7.20
2023-05-05T00:11:54.911Z,7.00
2023-05-05T00:14:24.898Z,6.60
2023-05-05T00:16:55.191Z,6.50
2023-05-05T00:19:25.847Z,6.90
2023-05-05T00:21:56.566Z,6.10
2023-05-05T00:24:33.687Z,5.60
2023-05-05T00:27:03.694Z,6.70
2023-05-05T00:29:33.706Z,6.50
2023-05-05T00:32:03.763Z,6.00
2023-05-05T00:34:34.716Z,5.80
2023-05-05T00:37:20.989Z,5.50
2023-05-05T00:39:51.552Z,6.20
2023-05-05T00:42:21.678Z,4.80
2023-05-05T00:44:51.732Z,5.30
2023-05-05T00:47:22.112Z,5.00
2023-05-05T00:49:52.544Z,5.40
2023-05-05T00:52:22.430Z,6.20
2023-05-05T00:54:52.413Z,5.80
2023-05-05T00:57:22.373Z,5.60
2023-05-05T00:59:53.517Z,6.60
2023-05-05T01:02:23.440Z,6.80
2023-05-05T01:04:53.854Z,6.70
2023-05-05T01:07:33.480Z,6.80
2023-05-05T01:10:18.892Z,6.80
2023-05-05T01:12:57.110Z,4.90
2023-05-05T01:15:33.963Z,5.90
2023-05-05T01:18:12.145Z,5.10
2023-05-05T01:20:50.002Z,5.90
2023-05-05T01:23:37.941Z,6.70
2023-05-05T01:26:27.812Z,6.10
2023-05-05T01:29:25.076Z,6.40
2023-05-05T01:31:56.935Z,6.70
2023-05-05T01:34:32.809Z,7.90
2023-05-05T01:37:10.750Z,7.30
2023-05-05T01:39:43.840Z,7.20
2023-05-05T01:42:14.749Z,6.50
2023-05-05T01:44:46.990Z,6.80
2023-05-05T01:47:22.633Z,7.20
2023-05-05T01:49:53.078Z,7.30
2023-05-05T01:52:24.761Z,7.50
2023-05-05T01:54:56.170Z,7.40
2023-05-05T01:57:29.677Z,7.40
2023-05-05T02:00:05.793Z,6.80
2023-05-05T02:02:45.685Z,8.00
2023-05-05T02:05:18.828Z,8.70
2023-05-05T02:07:49.716Z,7.30
2023-05-05T02:10:20.047Z,8.20
2023-05-05T02:12:51.351Z,6.20
2023-05-05T02:15:24.014Z,8.20
2023-05-05T02:17:54.916Z,7.80
2023-05-05T02:20:27.592Z,8.10
2023-05-05T02:22:57.793Z,8.00
2023-05-05T02:25:32.945Z,8.70
2023-05-05T02:28:04.666Z,8.30
2023-05-05T02:30:38.267Z,7.80
2023-05-05T02:33:12.188Z,8.90
2023-05-05T02:35:44.493Z,7.70
2023-05-05T02:38:19.189Z,7.80
2023-05-05T02:40:52.641Z,8.90
2023-05-05T02:43:25.125Z,7.90
2023-05-05T02:45:55.156Z,8.50
2023-05-05T02:48:25.275Z,9.00
2023-05-05T02:50:55.833Z,7.90
2023-05-05T02:53:30.911Z,7.20
2023-05-05T02:56:12.839Z,7.60
2023-05-05T02:58:54.801Z,7.90
2023-05-05T03:01:38.021Z,7.70
2023-05-05T03:04:16.500Z,8.50
2023-05-05T03:06:55.000Z,7.90
2023-05-05T03:09:30.721Z,7.50
2023-05-05T03:12:04.271Z,8.10
2023-05-05T03:14:43.678Z,8.40
2023-05-05T03:17:18.034Z,8.40
2023-05-05T03:19:48.993Z,7.50
2023-05-05T03:22:19.451Z,9.40
2023-05-05T03:24:52.342Z,7.40
2023-05-05T03:27:25.794Z,7.80
2023-05-05T03:29:56.150Z,7.20
2023-05-05T03:32:26.807Z,7.00
2023-05-05T03:34:57.758Z,8.20
2023-05-05T03:37:31.707Z,7.00
2023-05-05T03:40:02.672Z,7.70
2023-05-05T03:42:33.906Z,6.10
2023-05-05T03:45:04.128Z,6.70
2023-05-05T03:47:34.449Z,7.40
2023-05-05T03:50:04.717Z,7.20
2023-05-05T03:52:34.900Z,7.20
2023-05-05T03:55:05.089Z,7.30
2023-05-05T03:57:35.202Z,6.40
2023-05-05T04:00:11.574Z,7.70
2023-05-05T04:02:44.299Z,5.40
2023-05-05T04:05:15.676Z,6.30
2023-05-05T04:07:47.082Z,6.00
2023-05-05T04:10:18.802Z,5.60
2023-05-05T04:12:48.745Z,6.40
2023-05-05T04:15:20.497Z,5.90
2023-05-05T04:17:50.659Z,6.50
2023-05-05T04:20:21.236Z,6.00
2023-05-05T04:22:52.768Z,6.90
2023-05-05T04:25:24.208Z,7.10
2023-05-05T04:27:54.396Z,6.70
2023-05-05T04:30:24.553Z,6.90
2023-05-05T04:32:54.697Z,7.40
2023-05-05T04:35:24.835Z,6.60
2023-05-05T04:37:55.580Z,5.00
2023-05-05T04:40:26.433Z,5.50
2023-05-05T04:42:56.868Z,5.80
2023-05-05T04:45:27.306Z,5.30
2023-05-05T04:47:57.765Z,4.70
2023-05-05T04:50:27.752Z,5.10
2023-05-05T04:52:57.799Z,4.90
2023-05-05T04:55:28.035Z,4.40
2023-05-05T04:57:58.078Z,4.60
2023-05-05T05:00:28.608Z,4.80
2023-05-05T05:02:58.428Z,4.40
2023-05-05T05:05:29.006Z,4.20
2023-05-05T05:07:59.912Z,4.60
2023-05-05T05:10:30.041Z,4.90
2023-05-05T05:13:00.366Z,5.90
2023-05-05T05:15:30.712Z,3.90
2023-05-05T05:18:00.802Z,5.90
2023-05-05T05:20:31.967Z,5.90
2023-05-05T05:23:02.295Z,6.30
2023-05-05T05:25:33.655Z,5.70
2023-05-05T05:28:10.199Z,5.60
2023-05-05T05:30:54.592Z,5.80
2023-05-05T05:33:24.654Z,5.40
2023-05-05T05:35:55.821Z,5.20
2023-05-05T05:38:25.816Z,5.50
2023-05-05T05:40:57.852Z,5.20
2023-05-05T05:43:27.849Z,5.70
2023-05-05T05:45:57.893Z,5.30
2023-05-05T05:48:28.308Z,7.40
2023-05-05T05:50:58.475Z,7.90
2023-05-05T05:53:28.931Z,6.80
2023-05-05T05:56:01.056Z,7.20
2023-05-05T05:58:31.360Z,6.80
2023-05-05T06:01:01.949Z,7.30
2023-05-05T06:03:35.661Z,8.30
2023-05-05T06:08:34.957Z,5.50
2023-05-05T06:11:05.160Z,5.70
2023-05-05T06:13:35.194Z,5.70
2023-05-05T06:16:05.758Z,5.90
2023-05-05T06:18:35.991Z,6.50
2023-05-05T06:21:08.861Z,8.30
2023-05-05T06:23:39.609Z,7.20
2023-05-05T06:26:09.648Z,6.30
2023-05-05T06:28:41.650Z,7.50
2023-05-05T06:31:12.556Z,7.40
2023-05-05T06:33:42.639Z,6.90
2023-05-05T06:36:12.951Z,6.70
2023-05-05T06:38:43.205Z,7.80
2023-05-05T06:41:13.048Z,6.90
2023-05-05T06:43:44.799Z,6.80
2023-05-05T06:48:45.299Z,6.90
2023-05-05T06:51:15.860Z,6.30
2023-05-05T06:53:45.896Z,6.80
2023-05-05T06:56:16.879Z,6.40
2023-05-05T06:58:47.118Z,6.80
2023-05-05T07:01:17.297Z,7.20
2023-05-05T07:03:47.428Z,6.10
2023-05-05T07:06:17.223Z,6.70
2023-05-05T07:08:47.069Z,6.20
2023-05-05T07:11:17.112Z,5.80
2023-05-05T07:13:48.977Z,6.40
2023-05-05T07:16:19.570Z,5.50
2023-05-05T07:18:49.696Z,6.10
2023-05-05T07:21:21.040Z,5.20
2023-05-05T07:23:51.324Z,5.50
2023-05-05T07:26:22.339Z,5.90
2023-05-05T07:28:52.554Z,6.10
2023-05-05T07:31:23.779Z,5.20
2023-05-05T07:33:54.880Z,5.00
2023-05-05T07:36:28.660Z,4.60
2023-05-05T07:39:00.232Z,6.20
2023-05-05T07:41:30.484Z,5.10
2023-05-05T07:44:03.801Z,4.90
2023-05-05T07:49:06.242Z,4.80
2023-05-05T07:51:36.590Z,5.30
2023-05-05T07:54:07.589Z,4.30
2023-05-05T07:56:42.710Z,4.50
2023-05-05T07:59:13.420Z,3.50
2023-05-05T08:01:43.724Z,4.90
2023-05-05T08:04:13.822Z,5.10
2023-05-05T08:06:44.181Z,4.70
2023-05-05T08:09:14.452Z,5.20
2023-05-05T08:11:46.306Z,4.70
2023-05-05T08:14:16.264Z,5.40
2023-05-05T08:16:46.141Z,5.70
2023-05-05T08:19:28.882Z,4.30
2023-05-05T08:22:01.189Z,5.80
2023-05-05T08:24:31.931Z,6.00
2023-05-05T08:27:04.801Z,4.90
2023-05-05T08:29:35.063Z,5.50
2023-05-05T08:32:13.056Z,4.40
2023-05-05T08:34:44.347Z,4.70
2023-05-05T08:37:14.274Z,5.10
2023-05-05T08:39:45.968Z,3.90
2023-05-05T08:42:32.761Z,4.10
2023-05-05T08:45:10.570Z,4.30
2023-05-05T08:47:42.773Z,4.40
2023-05-05T08:50:14.150Z,4.10
2023-05-05T08:52:51.236Z,4.00
2023-05-05T08:55:26.494Z,3.90
2023-05-05T08:57:58.384Z,3.80
2023-05-05T09:00:29.766Z,2.80
2023-05-05T09:03:01.686Z,3.40
2023-05-05T09:05:32.075Z,3.50
2023-05-05T09:08:02.085Z,3.20
2023-05-05T09:10:33.220Z,2.90
2023-05-05T09:13:04.703Z,3.70
2023-05-05T09:15:35.906Z,3.00
2023-05-05T09:18:08.564Z,3.20
2023-05-05T09:20:40.355Z,3.30
2023-05-05T09:23:13.144Z,3.90
2023-05-05T09:25:46.894Z,3.50
2023-05-05T09:28:20.818Z,3.50
2023-05-05T09:30:51.024Z,3.30
2023-05-05T09:33:32.494Z,3.60
2023-05-05T09:36:02.675Z,3.60
2023-05-05T09:38:32.512Z,3.10
2023-05-05T09:41:02.683Z,3.50
2023-05-05T09:43:52.849Z,2.90
2023-05-05T09:46:23.534Z,3.70
2023-05-05T09:48:55.218Z,3.20
2023-05-05T09:51:31.566Z,3.30
2023-05-05T09:54:01.524Z,3.70
2023-05-05T09:56:40.587Z,3.30
2023-05-05T09:59:11.479Z,3.00
2023-05-05T10:01:44.796Z,3.10
2023-05-05T10:06:56.823Z,2.70
2023-05-05T10:09:27.505Z,2.60
2023-05-05T10:12:00.191Z,2.80
2023-05-05T10:14:34.396Z,2.80
2023-05-05T10:17:07.533Z,2.40
2023-05-05T10:19:39.348Z,2.80
2023-05-05T10:22:10.452Z,2.50
2023-05-05T10:24:45.244Z,2.90
2023-05-05T10:27:24.630Z,2.60
2023-05-05T10:30:02.637Z,3.30
2023-05-05T10:35:21.509Z,2.10
2023-05-05T10:37:52.788Z,2.30
2023-05-05T10:40:23.890Z,4.50
2023-05-05T10:42:56.044Z,2.60
2023-05-05T10:45:26.141Z,2.10
2023-05-05T10:47:59.614Z,2.80
2023-05-05T10:50:34.993Z,2.50
2023-05-05T10:53:17.012Z,2.60
2023-05-05T10:55:52.910Z,2.30
2023-05-05T10:58:46.856Z,2.60
2023-05-05T11:01:32.502Z,2.70
2023-05-05T11:04:24.403Z,3.10
2023-05-05T11:07:25.629Z,2.20
2023-05-05T11:10:01.952Z,2.50
2023-05-05T11:12:33.685Z,2.80
2023-05-05T11:15:37.145Z,2.80
2023-05-05T11:18:08.203Z,3.80
2023-05-05T11:21:07.350Z,2.80
2023-05-05T11:23:37.258Z,2.40
2023-05-05T11:26:07.473Z,2.90
2023-05-05T11:28:56.772Z,2.30
2023-05-05T11:31:27.176Z,2.60
2023-05-05T11:34:17.143Z,2.80
2023-05-05T11:36:47.361Z,2.40
2023-05-05T11:39:29.980Z,2.40
2023-05-05T11:42:18.787Z,2.70
2023-05-05T11:44:49.364Z,2.40
2023-05-05T11:47:34.977Z,2.60
2023-05-05T11:50:23.008Z,2.70
2023-05-05T11:52:53.148Z,2.10
2023-05-05T11:55:23.933Z,2.40
2023-05-05T11:57:54.360Z,2.10
2023-05-05T12:00:34.795Z,2.50
2023-05-05T12:03:05.784Z,2.70
2023-05-05T12:05:36.903Z,2.50
2023-05-05T12:08:08.171Z,2.40
2023-05-05T12:10:38.160Z,2.10
2023-05-05T12:13:19.562Z,2.30
2023-05-05T12:15:50.049Z,2.60
2023-05-05T12:18:23.225Z,3.00
2023-05-05T12:20:53.417Z,2.50
2023-05-05T12:23:23.620Z,2.50
2023-05-05T12:25:53.710Z,2.20
2023-05-05T12:28:23.939Z,2.80
2023-05-05T12:31:03.237Z,2.00
2023-05-05T12:33:40.790Z,2.30
2023-05-05T12:36:11.843Z,2.30
2023-05-05T12:38:42.439Z,2.20
2023-05-05T12:41:17.960Z,2.60
2023-05-05T12:43:48.131Z,1.90
2023-05-05T12:46:18.207Z,2.30
2023-05-05T12:49:04.527Z,1.90
2023-05-05T12:51:35.757Z,2.20
2023-05-05T12:54:07.494Z,2.60
2023-05-05T12:56:40.486Z,2.40
2023-05-05T12:59:11.770Z,2.10
2023-05-05T13:01:51.838Z,2.40
2023-05-05T13:04:23.322Z,2.60
2023-05-05T13:07:10.421Z,2.30
2023-05-05T13:09:41.759Z,2.40
2023-05-05T13:12:12.187Z,2.80
2023-05-05T13:14:43.286Z,2.70
2023-05-05T13:17:13.982Z,2.10
2023-05-05T13:19:45.987Z,2.70
2023-05-05T13:22:16.327Z,2.40
2023-05-05T13:24:51.641Z,2.70
2023-05-05T13:27:25.879Z,2.90
2023-05-05T13:32:24.993Z,2.70
2023-05-05T13:34:55.241Z,2.50
2023-05-05T13:37:27.297Z,2.50
2023-05-05T13:40:00.762Z,2.90
2023-05-05T13:42:30.922Z,2.40
2023-05-05T13:45:01.089Z,2.20
2023-05-05T13:47:31.553Z,3.10
2023-05-05T13:50:01.877Z,2.60
2023-05-05T13:52:33.447Z,2.00
2023-05-05T13:55:05.295Z,3.20
2023-05-05T13:57:35.530Z,2.80
2023-05-05T14:00:07.544Z,2.50
2023-05-05T14:02:37.718Z,3.00
2023-05-05T14:05:10.277Z,2.50
2023-05-05T14:07:41.684Z,2.50
2023-05-05T14:10:12.230Z,2.40
2023-05-05T14:12:42.398Z,2.20
2023-05-05T14:15:13.056Z,2.00
2023-05-05T14:17:43.643Z,1.80
2023-05-05T14:20:14.441Z,2.00
2023-05-05T14:22:44.462Z,1.80
2023-05-05T14:25:14.652Z,1.40
2023-05-05T14:27:44.664Z,1.70
2023-05-05T14:30:16.003Z,1.80
2023-05-05T14:32:46.085Z,2.60
2023-05-05T14:35:16.342Z,2.10
2023-05-05T14:37:46.351Z,2.40
2023-05-05T14:40:16.153Z,2.00
2023-05-05T14:42:48.939Z,2.00
2023-05-05T14:45:19.020Z,2.20
2023-05-05T14:47:49.238Z,1.70
2023-05-05T14:50:20.244Z,2.50
2023-05-05T14:52:50.351Z,2.10
2023-05-05T14:55:20.801Z,2.00
2023-05-05T14:57:51.310Z,1.80
2023-05-05T15:00:22.156Z,2.00
2023-05-05T15:02:54.162Z,1.80
2023-05-05T15:05:24.377Z,1.60
2023-05-05T15:07:54.314Z,1.70
2023-05-05T15:10:27.684Z,1.90
2023-05-05T15:12:57.915Z,2.00
2023-05-05T15:15:27.769Z,1.60
2023-05-05T15:17:57.851Z,1.70
2023-05-05T15:20:28.153Z,1.80
2023-05-05T15:22:59.053Z,1.80
2023-05-05T15:25:29.016Z,2.00
2023-05-05T15:28:00.634Z,4.30
2023-05-05T15:30:30.670Z,2.00
2023-05-05T15:33:00.938Z,2.00
2023-05-05T15:35:30.960Z,1.80
2023-05-05T15:38:01.152Z,2.10
2023-05-05T15:40:31.271Z,2.00
2023-05-05T15:43:01.475Z,1.70
2023-05-05T15:45:31.463Z,1.60
2023-05-05T15:48:01.831Z,1.80
2023-05-05T15:50:31.984Z,1.80
2023-05-05T15:53:02.051Z,1.60
2023-05-05T15:55:32.539Z,1.90
2023-05-05T15:58:02.610Z,1.90
2023-05-05T16:00:32.513Z,1.80
2023-05-05T16:03:03.013Z,2.10
2023-05-05T16:05:32.915Z,2.00
2023-05-05T16:08:09.339Z,1.80
2023-05-05T16:10:39.510Z,1.70
2023-05-05T16:13:10.185Z,2.00
2023-05-05T16:15:40.672Z,1.60
2023-05-05T16:18:11.201Z,1.60
2023-05-05T16:20:41.712Z,1.90
2023-05-05T16:23:11.923Z,2.00
2023-05-05T16:25:42.128Z,1.80
2023-05-05T16:28:12.360Z,1.40
2023-05-05T16:30:44.520Z,1.90
2023-05-05T16:33:14.656Z,1.60
2023-05-05T16:35:46.631Z,1.70
2023-05-05T16:38:16.765Z,1.90
2023-05-05T16:40:46.739Z,1.90
2023-05-05T16:43:16.655Z,1.80
2023-05-05T16:45:47.078Z,2.10
2023-05-05T16:48:18.154Z,2.20
2023-05-05T16:50:48.473Z,1.70
2023-05-05T16:53:18.605Z,1.80
2023-05-05T16:55:52.098Z,1.80
2023-05-05T16:58:25.392Z,1.50
2023-05-05T17:00:58.048Z,1.70
2023-05-05T17:03:28.049Z,1.70
2023-05-05T17:05:58.033Z,1.20
2023-05-05T17:08:29.433Z,1.80
2023-05-05T17:10:59.557Z,1.40
2023-05-05T17:13:32.564Z,1.40
2023-05-05T17:16:02.746Z,1.60
2023-05-05T17:18:33.070Z,1.80
2023-05-05T17:21:03.551Z,1.70
2023-05-05T17:23:36.129Z,1.80
2023-05-05T17:26:06.046Z,2.10
2023-05-05T17:28:36.271Z,2.10
2023-05-05T17:31:06.506Z,2.10
2023-05-05T17:33:36.338Z,2.20
2023-05-05T17:36:07.477Z,1.90
2023-05-05T17:38:37.528Z,2.20
2023-05-05T17:41:07.575Z,2.10
2023-05-05T17:43:37.895Z,2.10
2023-05-05T17:46:08.057Z,2.10
2023-05-05T17:48:38.496Z,2.30
2023-05-05T17:51:08.342Z,2.00
2023-05-05T17:53:38.198Z,1.90
2023-05-05T17:56:09.123Z,1.90
2023-05-05T17:58:41.866Z,3.20
2023-05-05T18:01:20.320Z,3.30
2023-05-05T18:03:53.316Z,2.90
2023-05-05T18:06:23.586Z,2.30
2023-05-05T18:08:54.220Z,2.50
2023-05-05T18:11:27.401Z,2.00
2023-05-05T18:14:00.825Z,2.50
2023-05-05T18:16:31.428Z,2.50
2023-05-05T18:19:01.700Z,2.30
2023-05-05T18:21:32.796Z,2.40
2023-05-05T18:24:15.800Z,2.30
2023-05-05T18:26:51.966Z,2.80
2023-05-05T18:29:23.648Z,2.80
2023-05-05T18:31:54.368Z,2.70
2023-05-05T18:34:25.198Z,2.30
2023-05-05T18:36:55.889Z,2.40
2023-05-05T18:39:26.501Z,2.40
2023-05-05T18:41:56.510Z,2.50
2023-05-05T18:44:27.220Z,2.50
2023-05-05T18:47:01.181Z,2.80
2023-05-05T18:49:31.787Z,2.50
2023-05-05T18:52:03.835Z,2.20
2023-05-05T18:54:40.064Z,2.70
2023-05-05T18:57:37.034Z,2.70
2023-05-05T19:00:38.221Z,2.90
2023-05-05T19:03:08.974Z,3.60
2023-05-05T19:05:41.247Z,2.90
2023-05-05T19:08:15.708Z,3.20
2023-05-05T19:10:45.859Z,3.30
2023-05-05T19:13:16.216Z,2.90
2023-05-05T19:15:49.396Z,3.20
2023-05-05T19:18:23.091Z,3.30
2023-05-05T19:20:56.199Z,3.10
2023-05-05T19:23:30.758Z,3.20
2023-05-05T19:26:03.158Z,3.20
2023-05-05T19:28:39.115Z,3.90
2023-05-05T19:31:08.993Z,4.20
2023-05-05T19:33:42.314Z,4.10
2023-05-05T19:36:16.238Z,3.80
2023-05-05T19:38:46.757Z,4.00
2023-05-05T19:41:17.590Z,4.10
2023-05-05T19:43:48.157Z,4.40
2023-05-05T19:46:18.256Z,4.80
2023-05-05T19:48:49.298Z,4.60
2023-05-05T19:51:19.177Z,5.20
2023-05-05T19:53:49.838Z,5.30
2023-05-05T19:56:25.397Z,5.10
2023-05-05T19:58:58.556Z,5.10
2023-05-05T20:01:32.716Z,6.10
2023-05-05T20:04:03.806Z,6.50
2023-05-05T20:06:35.232Z,5.80
2023-05-05T20:09:05.667Z,5.70
2023-05-05T20:11:36.129Z,6.00
2023-05-05T20:14:05.998Z,6.90
2023-05-05T20:16:36.136Z,6.20
2023-05-05T20:19:05.981Z,5.80
2023-05-05T20:21:36.791Z,6.50
2023-05-05T20:24:08.447Z,6.50
2023-05-05T20:26:38.385Z,6.40
2023-05-05T20:29:11.297Z,6.70
2023-05-05T20:31:45.106Z,5.90
2023-05-05T20:34:15.830Z,6.40
2023-05-05T20:36:46.475Z,6.40
2023-05-05T20:39:17.151Z,6.60
2023-05-05T20:41:47.357Z,6.70
2023-05-05T20:44:17.335Z,5.60
2023-05-05T20:46:47.323Z,6.30
2023-05-05T20:49:17.353Z,6.00
2023-05-05T20:51:47.318Z,5.80
2023-05-05T20:54:17.256Z,5.30
2023-05-05T20:56:47.034Z,5.40
2023-05-05T20:59:16.926Z,5.50
2023-05-05T21:01:47.076Z,5.10
2023-05-05T21:04:16.983Z,5.50
2023-05-05T21:06:46.897Z,5.60
2023-05-05T21:09:17.171Z,6.40
2023-05-05T21:11:47.109Z,5.60
2023-05-05T21:14:16.840Z,5.30
2023-05-05T21:16:47.915Z,5.60
2023-05-05T21:19:21.744Z,5.00
2023-05-05T21:21:51.868Z,5.50
2023-05-05T21:24:22.096Z,5.60
2023-05-05T21:26:52.281Z,5.50
2023-05-05T21:29:25.756Z,6.00
2023-05-05T21:31:55.769Z,5.70
2023-05-05T21:34:25.848Z,5.50
2023-05-05T21:36:56.859Z,5.60
2023-05-05T21:39:27.811Z,5.10
2023-05-05T21:41:58.441Z,5.60
2023-05-05T21:44:28.448Z,5.20
2023-05-05T21:46:58.428Z,5.10
2023-05-05T21:49:28.332Z,4.30
2023-05-05T21:51:58.552Z,4.90
2023-05-05T21:54:28.437Z,5.20
2023-05-05T21:56:58.606Z,6.20
2023-05-05T21:59:28.673Z,5.10
2023-05-05T22:01:58.484Z,5.30
2023-05-05T22:04:28.891Z,5.60
2023-05-05T22:06:58.979Z,5.50
2023-05-05T22:09:29.259Z,5.70
2023-05-05T22:11:59.760Z,5.60
2023-05-05T22:14:29.950Z,5.50
2023-05-05T22:16:59.981Z,5.60
2023-05-05T22:19:30.778Z,6.30
2023-05-05T22:22:01.022Z,5.60
2023-05-05T22:24:31.546Z,5.70
2023-05-05T22:27:01.753Z,5.90
2023-05-05T22:29:31.699Z,6.10
2023-05-05T22:32:01.920Z,5.60
2023-05-05T22:34:32.032Z,5.70
2023-05-05T22:37:02.632Z,6.00
2023-05-05T22:39:33.063Z,5.80
2023-05-05T22:42:03.515Z,5.80
2023-05-05T22:44:33.510Z,5.60
2023-05-05T22:47:03.601Z,6.00
2023-05-05T22:49:33.773Z,5.70
2023-05-05T22:52:03.706Z,5.80
2023-05-05T22:54:33.730Z,6.30
2023-05-05T22:57:03.589Z,5.70
2023-05-05T22:59:33.627Z,5.90
2023-05-05T23:02:03.617Z,5.90
2023-05-05T23:04:33.592Z,6.20
2023-05-05T23:07:03.470Z,5.20
2023-05-05T23:09:33.260Z,5.80
2023-05-05T23:12:06.366Z,5.80
2023-05-05T23:14:36.759Z,5.90
2023-05-05T23:17:07.081Z,6.00
2023-05-05T23:19:37.399Z,6.40
2023-05-05T23:22:07.395Z,6.00
2023-05-05T23:24:37.313Z,5.50
2023-05-05T23:27:07.389Z,5.60
2023-05-05T23:29:37.316Z,5.90
2023-05-05T23:32:07.553Z,6.10
2023-05-05T23:34:37.464Z,5.40
2023-05-05T23:37:07.470Z,5.10
2023-05-05T23:39:37.517Z,6.40
2023-05-05T23:42:07.442Z,5.10
2023-05-05T23:44:37.395Z,5.10
2023-05-05T23:47:07.744Z,5.50
2023-05-05T23:49:38.459Z,6.10
2023-05-05T23:52:08.310Z,5.20
2023-05-05T23:54:38.634Z,5.10
2023-05-05T23:57:08.638Z,5.40
2023-05-05T23:59:39.116Z,5.20
